Time;durP1;ratioP1;P1;durP2;ratioP2;P2;SDS_P1;SDS_P2;PMS_P1;PMS_P2;Temp;Humidity;BMP_temperature;BMP_pressure;BME280_temperature;BME280_humidity;BME280_pressure;Samples;Min_cycle;Max_cycle;Signal;HPM_P1;HPM_P2
2022/11/27 00:00:05;;;;;;;11.10;7.97;;;;;;;;;;5023791;28;20532;-87
2022/11/27 00:03:16;;;;;;;16.27;7.73;;;;;;;;;;5023736;28;20551;-87
2022/11/27 00:06:23;;;;;;;11.00;6.90;;;;;;;;;;5001305;28;20872;-87
2022/11/27 00:09:27;;;;;;;25.60;8.83;;;;;;;;;;5011983;28;20623;-87
2022/11/27 00:12:31;;;;;;;10.20;7.37;;;;;;;;;;5013759;28;20567;-86
2022/11/27 00:15:35;;;;;;;13.67;8.03;;;;;;;;;;5015485;28;20544;-87
2022/11/27 00:18:40;;;;;;;16.27;9.50;;;;;;;;;;5015371;28;20651;-87
2022/11/27 00:21:44;;;;;;;13.80;8.67;;;;;;;;;;5027203;28;20544;-87
2022/11/27 00:24:48;;;;;;;9.97;7.60;;;;;;;;;;5015048;28;20544;-87
2022/11/27 00:27:53;;;;;;;15.23;9.00;;;;;;;;;;5053271;28;20657;-87
2022/11/27 00:31:06;;;;;;;13.97;8.90;;;;;;;;;;5003957;28;21086;-87
2022/11/27 00:34:10;;;;;;;11.07;8.20;;;;;;;;;;5019853;28;20549;-87
2022/11/27 00:37:14;;;;;;;16.73;8.40;;;;;;;;;;5019264;28;20544;-87
2022/11/27 00:40:19;;;;;;;13.97;8.10;;;;;;;;;;5019821;28;20537;-87
2022/11/27 00:43:23;;;;;;;14.00;8.50;;;;;;;;;;5032331;28;20551;-87
2022/11/27 00:46:29;;;;;;;12.43;8.63;;;;;;;;;;5020063;28;20544;-87
2022/11/27 00:49:34;;;;;;;15.50;8.77;;;;;;;;;;5030245;28;20627;-87
2022/11/27 00:52:38;;;;;;;15.50;9.03;;;;;;;;;;5030078;28;20543;-87
2022/11/27 00:55:45;;;;;;;13.37;9.33;;;;;;;;;;5018235;28;20556;-87
2022/11/27 00:58:50;;;;;;;16.47;9.30;;;;;;;;;;5028164;28;20663;-87
2022/11/27 01:01:55;;;;;;;14.33;8.90;;;;;;;;;;5027998;28;20611;-87
2022/11/27 01:04:59;;;;;;;14.30;8.57;;;;;;;;;;5016169;28;20608;-87
2022/11/27 01:08:03;;;;;;;12.17;8.03;;;;;;;;;;5015427;28;20631;-87
2022/11/27 01:11:13;;;;;;;12.53;8.83;;;;;;;;;;5003874;28;20540;-87
2022/11/27 01:14:17;;;;;;;13.47;9.20;;;;;;;;;;5014800;28;20540;-86
2022/11/27 01:17:21;;;;;;;11.47;8.80;;;;;;;;;;5025780;28;20548;-87
2022/11/27 01:20:26;;;;;;;14.23;9.23;;;;;;;;;;5025539;28;20627;-87
2022/11/27 01:23:31;;;;;;;14.00;9.03;;;;;;;;;;5024921;28;20872;-87
2022/11/27 01:26:35;;;;;;;15.83;10.47;;;;;;;;;;5023966;28;20602;-87
2022/11/27 01:29:40;;;;;;;16.07;10.17;;;;;;;;;;5013064;28;21219;-87
2022/11/27 01:32:44;;;;;;;17.80;10.47;;;;;;;;;;5011968;28;20602;-87
2022/11/27 01:35:56;;;;;;;20.37;10.30;;;;;;;;;;5012367;28;20566;-87
2022/11/27 01:39:01;;;;;;;19.07;10.40;;;;;;;;;;5022975;28;21021;-86
2022/11/27 01:42:05;;;;;;;18.47;11.07;;;;;;;;;;5011921;28;20559;-86
2022/11/27 01:45:12;;;;;;;18.03;10.83;;;;;;;;;;5011245;28;20610;-87
2022/11/27 01:48:16;;;;;;;15.50;9.67;;;;;;;;;;5010694;28;20646;-87
2022/11/27 01:51:22;;;;;;;18.90;9.63;;;;;;;;;;5022437;28;20540;-87
2022/11/27 01:54:47;;;;;;;15.33;9.07;;;;;;;;;;5022585;28;20557;-86
2022/11/27 01:57:56;;;;;;;14.80;9.10;;;;;;;;;;4999022;28;20567;-87
2022/11/27 02:01:00;;;;;;;15.47;9.10;;;;;;;;;;5009625;28;20676;-86
2022/11/27 02:04:05;;;;;;;12.83;8.33;;;;;;;;;;5011151;28;21122;-86
2022/11/27 02:07:10;;;;;;;13.10;8.87;;;;;;;;;;5011900;28;20544;-86
2022/11/27 02:10:15;;;;;;;13.40;9.07;;;;;;;;;;5023090;28;20537;-87
2022/11/27 02:13:34;;;;;;;12.83;8.37;;;;;;;;;;5011650;28;20540;-87
2022/11/27 02:17:18;;;;;;;11.90;7.83;;;;;;;;;;5011478;28;20548;-86
2022/11/27 02:20:53;;;;;;;12.80;8.20;;;;;;;;;;5011184;28;21162;-87
2022/11/27 02:24:13;;;;;;;13.17;8.97;;;;;;;;;;5010704;28;20551;-87
2022/11/27 02:27:40;;;;;;;14.03;9.00;;;;;;;;;;5022085;28;20568;-87
2022/11/27 02:30:59;;;;;;;12.80;8.20;;;;;;;;;;5010882;28;20549;-87
2022/11/27 02:34:14;;;;;;;12.33;9.00;;;;;;;;;;5022132;28;20544;-87
2022/11/27 02:37:31;;;;;;;10.10;7.57;;;;;;;;;;5026164;28;20540;-86
2022/11/27 02:40:41;;;;;;;11.07;7.83;;;;;;;;;;5037068;28;20604;-87
2022/11/27 02:43:48;;;;;;;9.90;7.33;;;;;;;;;;5025670;28;20544;-86
2022/11/27 02:46:53;;;;;;;10.43;8.00;;;;;;;;;;5026454;28;20606;-87
2022/11/27 02:49:59;;;;;;;12.87;7.57;;;;;;;;;;5014658;28;20617;-87
2022/11/27 02:53:09;;;;;;;11.40;7.43;;;;;;;;;;5014379;28;20551;-87
2022/11/27 02:56:16;;;;;;;10.67;7.47;;;;;;;;;;5025905;28;20569;-87
2022/11/27 02:59:22;;;;;;;10.13;7.07;;;;;;;;;;5013801;28;21212;-86
2022/11/27 03:02:31;;;;;;;10.90;7.53;;;;;;;;;;5014009;28;20603;-87
2022/11/27 03:05:40;;;;;;;9.73;7.03;;;;;;;;;;5025198;28;20603;-87
2022/11/27 03:09:02;;;;;;;10.63;7.33;;;;;;;;;;5025146;28;20623;-87
2022/11/27 03:12:09;;;;;;;9.77;7.43;;;;;;;;;;5003084;28;20551;-86
2022/11/27 03:15:14;;;;;;;11.47;7.70;;;;;;;;;;5002466;28;20544;-87
2022/11/27 03:18:51;;;;;;;17.20;7.93;;;;;;;;;;5025601;28;21167;-87
2022/11/27 03:21:58;;;;;;;9.97;7.57;;;;;;;;;;5013734;28;20544;-86
2022/11/27 03:25:03;;;;;;;10.73;6.80;;;;;;;;;;5013796;28;21074;-86
2022/11/27 03:28:09;;;;;;;8.70;6.83;;;;;;;;;;5024786;28;20982;-87
2022/11/27 03:31:13;;;;;;;10.10;7.03;;;;;;;;;;5013781;28;20540;-87
2022/11/27 03:34:17;;;;;;;14.67;7.53;;;;;;;;;;5013665;28;20906;-86
2022/11/27 03:37:23;;;;;;;9.17;6.90;;;;;;;;;;5013334;28;20549;-86
2022/11/27 03:40:57;;;;;;;11.80;7.67;;;;;;;;;;5024771;28;20588;-87
2022/11/27 03:44:31;;;;;;;8.83;6.60;;;;;;;;;;5024547;28;20891;-86
2022/11/27 03:47:44;;;;;;;8.27;6.20;;;;;;;;;;5011964;28;20544;-86
2022/11/27 03:51:00;;;;;;;10.83;7.03;;;;;;;;;;5013440;28;21070;-86
2022/11/27 03:54:41;;;;;;;10.17;7.07;;;;;;;;;;5013892;28;20540;-86
2022/11/27 03:58:07;;;;;;;12.27;7.33;;;;;;;;;;5013477;28;20552;-87
2022/11/27 04:01:15;;;;;;;9.77;7.20;;;;;;;;;;5013082;28;20541;-87
2022/11/27 04:04:19;;;;;;;11.23;7.87;;;;;;;;;;5013301;28;21079;-87
2022/11/27 04:07:23;;;;;;;9.23;7.40;;;;;;;;;;5013206;28;21078;-86
2022/11/27 04:10:27;;;;;;;9.83;7.13;;;;;;;;;;5036370;28;21078;-86
2022/11/27 04:13:31;;;;;;;13.33;8.53;;;;;;;;;;5013504;28;20540;-86
2022/11/27 04:16:36;;;;;;;11.67;7.93;;;;;;;;;;5013583;28;20540;-86
2022/11/27 04:19:41;;;;;;;11.07;7.90;;;;;;;;;;5013139;28;20659;-87
2022/11/27 04:22:45;;;;;;;12.43;8.43;;;;;;;;;;5013179;28;20552;-86
2022/11/27 04:25:49;;;;;;;15.10;8.87;;;;;;;;;;5023915;28;20540;-87
2022/11/27 04:28:53;;;;;;;12.03;7.57;;;;;;;;;;5012501;28;20638;-87
2022/11/27 04:31:58;;;;;;;10.27;7.40;;;;;;;;;;5023943;28;20902;-87
2022/11/27 04:35:02;;;;;;;11.93;7.50;;;;;;;;;;5012539;28;20544;-87
2022/11/27 04:38:07;;;;;;;10.83;8.03;;;;;;;;;;5012330;28;20639;-87
2022/11/27 04:41:11;;;;;;;15.53;8.40;;;;;;;;;;5023572;28;20595;-87
2022/11/27 04:44:16;;;;;;;15.73;9.17;;;;;;;;;;5012639;28;20545;-87
2022/11/27 04:47:24;;;;;;;14.40;8.60;;;;;;;;;;5024517;28;20565;-86
2022/11/27 04:50:29;;;;;;;16.53;8.20;;;;;;;;;;5012064;28;20540;-86
2022/11/27 04:53:34;;;;;;;14.97;8.90;;;;;;;;;;5011758;28;20544;-87
2022/11/27 04:56:38;;;;;;;15.33;8.97;;;;;;;;;;5000707;28;20603;-86
2022/11/27 04:59:42;;;;;;;15.77;8.47;;;;;;;;;;5011313;28;20663;-87
2022/11/27 05:02:46;;;;;;;11.90;8.00;;;;;;;;;;5011684;28;20560;-87
2022/11/27 05:05:55;;;;;;;16.43;8.80;;;;;;;;;;5011812;28;20548;-87
2022/11/27 05:09:00;;;;;;;13.03;8.57;;;;;;;;;;5011643;28;20627;-87
2022/11/27 05:12:05;;;;;;;16.10;8.30;;;;;;;;;;5011472;28;20536;-86
2022/11/27 05:15:10;;;;;;;19.90;9.50;;;;;;;;;;5022912;28;20544;-86
2022/11/27 05:18:14;;;;;;;13.07;8.03;;;;;;;;;;4999965;28;21224;-86
2022/11/27 05:21:18;;;;;;;13.53;8.87;;;;;;;;;;5023013;28;20624;-86
2022/11/27 05:24:25;;;;;;;15.90;8.20;;;;;;;;;;5000192;28;20557;-86
2022/11/27 05:27:30;;;;;;;14.00;8.77;;;;;;;;;;5010731;28;20603;-86
2022/11/27 05:30:35;;;;;;;15.93;9.00;;;;;;;;;;5071760;23;20714;-88
2022/11/27 05:33:39;;;;;;;17.00;8.83;;;;;;;;;;5019648;28;20614;-89
2022/11/27 05:36:43;;;;;;;15.13;8.93;;;;;;;;;;5053523;28;20547;-89
2022/11/27 05:39:49;;;;;;;12.23;8.40;;;;;;;;;;5042064;28;20671;-88
2022/11/27 05:42:53;;;;;;;16.23;9.93;;;;;;;;;;5013431;28;20936;-89
2022/11/27 05:45:57;;;;;;;18.63;9.03;;;;;;;;;;5002455;28;20545;-89
2022/11/27 05:49:02;;;;;;;20.87;9.27;;;;;;;;;;4991046;28;20624;-88
2022/11/27 05:52:06;;;;;;;13.70;9.20;;;;;;;;;;5025202;28;20541;-89
2022/11/27 05:55:10;;;;;;;12.47;8.50;;;;;;;;;;5013561;28;20548;-89
2022/11/27 05:58:14;;;;;;;18.07;9.30;;;;;;;;;;5033100;28;20615;-89
2022/11/27 06:01:18;;;;;;;20.57;10.20;;;;;;;;;;5010938;28;20592;-88
2022/11/27 06:04:22;;;;;;;25.03;9.60;;;;;;;;;;5022089;28;20550;-88
2022/11/27 06:07:26;;;;;;;21.63;9.43;;;;;;;;;;5021916;28;20544;-88
2022/11/27 06:10:31;;;;;;;19.20;9.07;;;;;;;;;;5020854;28;20634;-89
2022/11/27 06:13:36;;;;;;;21.43;9.43;;;;;;;;;;5010285;28;20551;-89
2022/11/27 06:16:40;;;;;;;16.70;9.47;;;;;;;;;;5010854;28;20552;-88
2022/11/27 06:19:52;;;;;;;24.73;9.00;;;;;;;;;;5010572;28;20623;-88
2022/11/27 06:22:59;;;;;;;30.77;9.33;;;;;;;;;;5003010;28;20549;-88
2022/11/27 06:26:13;;;;;;;15.40;8.57;;;;;;;;;;5013120;28;20545;-88
2022/11/27 06:29:18;;;;;;;20.50;8.07;;;;;;;;;;5002145;28;21214;-88
2022/11/27 06:32:23;;;;;;;23.37;8.57;;;;;;;;;;5013780;28;20548;-89
2022/11/27 06:35:27;;;;;;;18.33;8.83;;;;;;;;;;5013347;28;20545;-90
2022/11/27 06:38:33;;;;;;;18.20;8.70;;;;;;;;;;5013032;28;20545;-88
2022/11/27 06:41:37;;;;;;;18.23;9.17;;;;;;;;;;5001962;28;20600;-88
2022/11/27 06:44:41;;;;;;;22.77;8.60;;;;;;;;;;5013267;28;20555;-89
2022/11/27 06:47:45;;;;;;;19.23;9.57;;;;;;;;;;5001754;28;20549;-89
2022/11/27 06:50:49;;;;;;;27.83;8.57;;;;;;;;;;5001404;28;20971;-88
2022/11/27 06:53:55;;;;;;;29.30;9.87;;;;;;;;;;5014645;28;21066;-88
2022/11/27 06:57:00;;;;;;;39.40;8.10;;;;;;;;;;5004566;28;20601;-88
2022/11/27 07:00:08;;;;;;;17.33;8.13;;;;;;;;;;5015748;28;20656;-88
2022/11/27 07:03:12;;;;;;;26.57;8.00;;;;;;;;;;5026985;28;20553;-88
2022/11/27 07:06:21;;;;;;;39.43;7.40;;;;;;;;;;4991593;28;20897;-89
2022/11/27 07:09:26;;;;;;;32.87;7.73;;;;;;;;;;5014208;28;20632;-88
2022/11/27 07:12:32;;;;;;;19.43;7.63;;;;;;;;;;5004694;28;20881;-89
2022/11/27 07:15:45;;;;;;;34.17;7.63;;;;;;;;;;5021175;28;20541;-88
2022/11/27 07:18:52;;;;;;;36.97;6.40;;;;;;;;;;5010661;28;20636;-89
2022/11/27 07:21:57;;;;;;;35.27;6.53;;;;;;;;;;5012735;28;20596;-89
2022/11/27 07:25:05;;;;;;;54.50;7.20;;;;;;;;;;5025303;28;20549;-88
2022/11/27 07:28:09;;;;;;;40.53;6.80;;;;;;;;;;5024380;28;20599;-88
2022/11/27 07:31:17;;;;;;;38.20;6.37;;;;;;;;;;5011975;28;20533;-89
2022/11/27 07:34:21;;;;;;;35.20;6.67;;;;;;;;;;5022781;28;20884;-89
2022/11/27 07:37:25;;;;;;;13.30;6.07;;;;;;;;;;5013920;28;20623;-88
2022/11/27 07:40:29;;;;;;;17.13;5.93;;;;;;;;;;4998840;28;20663;-89
2022/11/27 07:43:34;;;;;;;13.33;6.23;;;;;;;;;;5019384;28;20623;-89
2022/11/27 07:46:39;;;;;;;10.43;7.40;;;;;;;;;;5009072;28;20549;-88
2022/11/27 07:49:46;;;;;;;23.67;7.17;;;;;;;;;;5008639;28;20627;-89
2022/11/27 07:52:51;;;;;;;13.90;6.80;;;;;;;;;;5019782;28;20608;-89
2022/11/27 07:55:58;;;;;;;18.37;7.03;;;;;;;;;;5018813;28;20553;-89
2022/11/27 07:59:02;;;;;;;28.90;7.27;;;;;;;;;;5007270;28;20631;-89
2022/11/27 08:02:12;;;;;;;29.10;6.73;;;;;;;;;;5006840;28;20600;-89
2022/11/27 08:05:16;;;;;;;16.77;6.83;;;;;;;;;;5022051;28;20951;-89
2022/11/27 08:08:20;;;;;;;18.33;7.43;;;;;;;;;;5025987;28;20880;-89
2022/11/27 08:11:28;;;;;;;17.90;5.97;;;;;;;;;;5036607;28;20544;-88
2022/11/27 08:14:32;;;;;;;13.17;6.20;;;;;;;;;;5036831;28;20540;-89
2022/11/27 08:17:38;;;;;;;11.33;6.90;;;;;;;;;;5036543;28;20607;-89
2022/11/27 08:20:42;;;;;;;14.10;6.47;;;;;;;;;;5035762;28;20662;-89
2022/11/27 08:23:46;;;;;;;17.20;6.47;;;;;;;;;;5024705;28;20611;-89
2022/11/27 08:26:51;;;;;;;19.13;7.23;;;;;;;;;;5035825;28;21082;-89
2022/11/27 08:29:55;;;;;;;14.93;6.37;;;;;;;;;;5035681;28;20982;-89
2022/11/27 08:32:59;;;;;;;10.87;6.30;;;;;;;;;;5023948;28;20548;-89
2022/11/27 08:36:04;;;;;;;16.33;6.37;;;;;;;;;;5024549;28;20552;-88
2022/11/27 08:39:09;;;;;;;12.27;6.03;;;;;;;;;;5041418;28;20639;-88
2022/11/27 08:42:13;;;;;;;29.30;5.93;;;;;;;;;;5023808;28;20592;-88
2022/11/27 08:45:17;;;;;;;13.93;6.03;;;;;;;;;;5013849;28;20876;-89
2022/11/27 08:48:22;;;;;;;10.00;5.77;;;;;;;;;;5035854;28;20548;-89
2022/11/27 08:51:27;;;;;;;20.13;5.77;;;;;;;;;;5012517;28;20596;-89
2022/11/27 08:54:31;;;;;;;11.13;5.13;;;;;;;;;;5035403;28;20607;-89
2022/11/27 08:57:35;;;;;;;9.43;5.33;;;;;;;;;;5012584;28;20552;-89
2022/11/27 09:00:40;;;;;;;7.57;5.97;;;;;;;;;;5023377;28;20655;-89
2022/11/27 09:03:44;;;;;;;7.37;5.83;;;;;;;;;;5012038;28;20556;-89
2022/11/27 09:06:48;;;;;;;7.30;5.20;;;;;;;;;;5023249;28;20970;-89
2022/11/27 09:09:53;;;;;;;9.90;5.77;;;;;;;;;;5034532;28;20626;-88
2022/11/27 09:12:58;;;;;;;7.83;5.87;;;;;;;;;;5012434;28;20548;-89
2022/11/27 09:16:03;;;;;;;9.87;5.90;;;;;;;;;;5011860;28;20603;-89
2022/11/27 09:19:07;;;;;;;11.30;6.27;;;;;;;;;;5011862;28;20620;-88
2022/11/27 09:22:11;;;;;;;8.30;5.73;;;;;;;;;;5022873;28;21149;-90
2022/11/27 09:25:16;;;;;;;7.77;5.33;;;;;;;;;;5023343;28;20552;-88
2022/11/27 09:28:20;;;;;;;9.37;5.30;;;;;;;;;;5023503;28;20544;-89
2022/11/27 09:31:24;;;;;;;8.27;5.87;;;;;;;;;;5011592;28;20946;-88
2022/11/27 09:34:28;;;;;;;8.43;5.97;;;;;;;;;;5012336;28;20549;-88
2022/11/27 09:37:32;;;;;;;9.53;6.30;;;;;;;;;;5034248;28;20540;-88
2022/11/27 09:40:43;;;;;;;7.97;5.60;;;;;;;;;;5022743;28;20631;-88
2022/11/27 09:43:55;;;;;;;9.67;5.87;;;;;;;;;;5022619;28;20907;-88
2022/11/27 09:47:23;;;;;;;10.00;6.30;;;;;;;;;;5011569;28;20548;-88
2022/11/27 09:50:33;;;;;;;10.43;6.10;;;;;;;;;;5010969;28;20611;-88
2022/11/27 09:53:43;;;;;;;9.87;6.13;;;;;;;;;;5022924;28;20548;-89
2022/11/27 09:56:50;;;;;;;12.00;6.93;;;;;;;;;;5011765;28;20544;-88
2022/11/27 09:59:58;;;;;;;9.93;7.13;;;;;;;;;;5022542;28;20619;-89
2022/11/27 10:03:10;;;;;;;11.17;6.23;;;;;;;;;;5022310;28;20959;-88
2022/11/27 10:06:35;;;;;;;8.70;6.10;;;;;;;;;;5034056;28;20552;-89
2022/11/27 10:09:47;;;;;;;9.37;5.93;;;;;;;;;;5022126;28;20628;-89
2022/11/27 10:13:07;;;;;;;8.93;6.03;;;;;;;;;;5022649;28;20599;-88
2022/11/27 10:16:35;;;;;;;16.57;6.30;;;;;;;;;;5011361;28;20536;-88
2022/11/27 10:20:01;;;;;;;22.30;5.93;;;;;;;;;;5011208;28;20615;-88
2022/11/27 10:23:13;;;;;;;8.87;5.87;;;;;;;;;;5011200;28;20533;-88
2022/11/27 10:26:40;;;;;;;21.17;6.37;;;;;;;;;;5021926;28;20548;-88
2022/11/27 10:29:53;;;;;;;15.50;7.50;;;;;;;;;;5011253;28;20643;-88
2022/11/27 10:32:59;;;;;;;10.43;6.17;;;;;;;;;;5022737;28;20540;-88
2022/11/27 10:36:09;;;;;;;8.60;5.80;;;;;;;;;;5012290;28;21102;-88
2022/11/27 10:39:36;;;;;;;9.10;6.50;;;;;;;;;;5022629;28;20632;-88
2022/11/27 10:42:56;;;;;;;9.17;6.40;;;;;;;;;;5011413;28;20600;-88
2022/11/27 10:46:20;;;;;;;8.73;5.43;;;;;;;;;;5011153;28;20540;-88
2022/11/27 10:49:24;;;;;;;9.07;6.47;;;;;;;;;;5011242;28;20631;-89
2022/11/27 10:52:28;;;;;;;10.93;6.33;;;;;;;;;;5010900;28;20540;-88
2022/11/27 10:56:02;;;;;;;14.07;7.17;;;;;;;;;;5022476;28;20899;-88
2022/11/27 10:59:14;;;;;;;12.23;8.00;;;;;;;;;;5001286;28;20647;-89
2022/11/27 11:02:38;;;;;;;11.37;8.13;;;;;;;;;;5014447;28;20960;-88
2022/11/27 11:05:54;;;;;;;11.03;6.77;;;;;;;;;;5014719;28;20544;-88
2022/11/27 11:09:05;;;;;;;10.33;7.13;;;;;;;;;;5025846;28;20627;-88
2022/11/27 11:12:20;;;;;;;11.57;7.60;;;;;;;;;;5014490;28;21082;-88
2022/11/27 11:15:25;;;;;;;12.67;7.63;;;;;;;;;;5014533;28;20548;-89
2022/11/27 11:18:32;;;;;;;11.33;7.63;;;;;;;;;;5040669;28;20556;-88
2022/11/27 11:21:41;;;;;;;11.90;7.87;;;;;;;;;;5025505;28;20595;-88
2022/11/27 11:24:50;;;;;;;9.93;7.50;;;;;;;;;;5025131;28;20599;-88
2022/11/27 11:27:55;;;;;;;10.30;7.20;;;;;;;;;;5014160;28;20556;-88
2022/11/27 11:31:06;;;;;;;13.80;8.33;;;;;;;;;;5032447;28;20548;-89
2022/11/27 11:34:21;;;;;;;10.77;7.53;;;;;;;;;;5036744;28;20544;-89
2022/11/27 11:37:33;;;;;;;10.83;7.17;;;;;;;;;;5013807;28;20540;-88
2022/11/27 11:40:39;;;;;;;12.53;7.50;;;;;;;;;;5024816;28;20631;-89
2022/11/27 11:44:01;;;;;;;11.73;7.33;;;;;;;;;;5025068;28;20936;-89
2022/11/27 11:47:12;;;;;;;11.60;7.57;;;;;;;;;;5014027;28;20548;-89
2022/11/27 11:50:29;;;;;;;9.93;6.87;;;;;;;;;;5013692;28;20635;-89
2022/11/27 11:53:44;;;;;;;9.87;6.97;;;;;;;;;;5013637;28;20532;-89
2022/11/27 11:56:51;;;;;;;9.37;6.27;;;;;;;;;;5025192;28;21058;-89
2022/11/27 12:00:08;;;;;;;10.33;7.23;;;;;;;;;;5024939;28;20630;-89
2022/11/27 12:03:37;;;;;;;9.90;7.03;;;;;;;;;;5035737;28;20205;-89
2022/11/27 12:06:55;;;;;;;8.80;6.07;;;;;;;;;;5024445;28;20535;-89
2022/11/27 12:10:06;;;;;;;9.30;6.30;;;;;;;;;;5012777;28;20216;-89
2022/11/27 12:13:44;;;;;;;9.13;6.43;;;;;;;;;;5023909;28;20188;-89
2022/11/27 12:17:22;;;;;;;9.13;5.93;;;;;;;;;;5012944;28;20177;-89
2022/11/27 12:20:40;;;;;;;9.63;6.07;;;;;;;;;;5023898;28;20213;-89
2022/11/27 12:24:12;;;;;;;8.67;6.13;;;;;;;;;;5013032;28;21068;-89
2022/11/27 12:27:49;;;;;;;8.30;6.07;;;;;;;;;;5010869;28;20537;-88
2022/11/27 12:31:08;;;;;;;8.07;6.27;;;;;;;;;;5010221;28;20212;-88
2022/11/27 12:34:50;;;;;;;8.67;6.70;;;;;;;;;;5017540;28;20181;-88
2022/11/27 12:38:23;;;;;;;11.10;7.53;;;;;;;;;;5023847;28;20185;-88
2022/11/27 12:41:59;;;;;;;10.00;6.80;;;;;;;;;;5035304;28;20181;-88
2022/11/27 12:45:18;;;;;;;9.87;7.03;;;;;;;;;;5015770;28;20205;-88
2022/11/27 12:48:28;;;;;;;21.57;11.10;;;;;;;;;;5004339;28;20186;-88
2022/11/27 12:51:54;;;;;;;18.83;11.57;;;;;;;;;;5026558;28;20185;-88
2022/11/27 12:55:13;;;;;;;22.53;12.50;;;;;;;;;;5003956;28;20181;-89
2022/11/27 12:58:30;;;;;;;10.07;5.90;;;;;;;;;;5004235;28;20620;-88
2022/11/27 13:01:40;;;;;;;8.50;6.80;;;;;;;;;;5003888;28;20178;-88
2022/11/27 13:04:53;;;;;;;10.10;6.33;;;;;;;;;;5003491;28;20185;-88
2022/11/27 13:08:05;;;;;;;9.57;6.40;;;;;;;;;;5015055;28;20193;-88
2022/11/27 13:11:14;;;;;;;9.60;6.80;;;;;;;;;;5014374;28;20193;-88
2022/11/27 13:14:23;;;;;;;8.97;6.43;;;;;;;;;;5014984;28;20549;-88
2022/11/27 13:17:39;;;;;;;8.77;6.30;;;;;;;;;;5023476;28;20208;-89
2022/11/27 13:20:45;;;;;;;9.43;6.60;;;;;;;;;;5045722;28;20220;-88
2022/11/27 13:23:50;;;;;;;9.50;6.87;;;;;;;;;;5034009;28;20599;-88
2022/11/27 13:27:07;;;;;;;8.47;5.97;;;;;;;;;;5022832;28;20197;-88
2022/11/27 13:30:22;;;;;;;7.57;5.63;;;;;;;;;;5022690;28;20228;-88
2022/11/27 13:33:37;;;;;;;7.37;5.50;;;;;;;;;;5022555;28;20181;-88
2022/11/27 13:36:49;;;;;;;8.60;5.60;;;;;;;;;;5022879;28;20181;-88
2022/11/27 13:40:19;;;;;;;7.03;5.27;;;;;;;;;;5033773;28;20684;-88
2022/11/27 13:43:38;;;;;;;6.27;5.13;;;;;;;;;;5022514;28;20201;-89
2022/11/27 13:46:47;;;;;;;7.60;4.97;;;;;;;;;;5022695;28;20181;-88
2022/11/27 13:50:10;;;;;;;6.87;4.63;;;;;;;;;;5033409;28;20216;-88
2022/11/27 13:53:14;;;;;;;8.00;5.20;;;;;;;;;;5045560;28;20185;-88
2022/11/27 13:56:30;;;;;;;6.70;4.97;;;;;;;;;;5021980;28;20176;-88
2022/11/27 13:59:33;;;;;;;11.33;4.77;;;;;;;;;;5022031;28;20217;-88
2022/11/27 14:02:47;;;;;;;8.30;5.83;;;;;;;;;;5022077;28;20201;-88
2022/11/27 14:05:52;;;;;;;7.20;4.93;;;;;;;;;;5044786;28;20189;-88
2022/11/27 14:09:06;;;;;;;9.60;5.30;;;;;;;;;;5033649;28;20681;-88
2022/11/27 14:12:20;;;;;;;8.33;5.90;;;;;;;;;;5044639;28;20193;-88
2022/11/27 14:15:26;;;;;;;9.23;6.10;;;;;;;;;;5021691;28;20193;-88
2022/11/27 14:18:30;;;;;;;8.87;6.13;;;;;;;;;;5033167;28;20196;-89
2022/11/27 14:21:40;;;;;;;9.57;5.50;;;;;;;;;;5021743;28;20196;-88
2022/11/27 14:24:54;;;;;;;9.13;6.00;;;;;;;;;;5044593;28;20173;-88
2022/11/27 14:28:13;;;;;;;8.53;5.83;;;;;;;;;;5021934;28;20177;-88
2022/11/27 14:31:21;;;;;;;9.67;6.10;;;;;;;;;;5034380;28;20575;-88
2022/11/27 14:34:29;;;;;;;7.07;5.37;;;;;;;;;;5026242;28;20177;-88
2022/11/27 14:37:33;;;;;;;7.77;5.80;;;;;;;;;;5037356;28;20185;-88
2022/11/27 14:40:38;;;;;;;8.40;5.77;;;;;;;;;;5036944;28;20671;-88
2022/11/27 14:43:42;;;;;;;10.73;6.40;;;;;;;;;;5026066;28;20208;-88
2022/11/27 14:46:47;;;;;;;9.93;7.03;;;;;;;;;;5026371;28;20180;-88
2022/11/27 14:49:55;;;;;;;8.70;5.40;;;;;;;;;;5037124;28;20216;-88
2022/11/27 14:52:59;;;;;;;8.30;5.90;;;;;;;;;;5037692;28;20193;-88
2022/11/27 14:56:03;;;;;;;9.87;6.20;;;;;;;;;;5037042;28;20180;-88
2022/11/27 14:59:16;;;;;;;8.37;5.47;;;;;;;;;;5048811;28;20213;-88
2022/11/27 15:02:25;;;;;;;7.53;5.73;;;;;;;;;;5036876;28;20212;-88
2022/11/27 15:05:29;;;;;;;7.87;5.57;;;;;;;;;;5048055;28;20181;-88
2022/11/27 15:08:36;;;;;;;9.63;6.43;;;;;;;;;;5035910;28;20205;-88
2022/11/27 15:11:40;;;;;;;8.73;5.67;;;;;;;;;;5036527;28;20181;-88
2022/11/27 15:15:17;;;;;;;9.23;5.67;;;;;;;;;;5036667;28;20620;-88
2022/11/27 15:18:22;;;;;;;8.47;4.83;;;;;;;;;;5036204;28;20177;-88
2022/11/27 15:21:27;;;;;;;7.40;5.67;;;;;;;;;;5024577;28;20568;-88
2022/11/27 15:24:34;;;;;;;9.43;5.87;;;;;;;;;;5036596;28;20209;-88
2022/11/27 15:27:46;;;;;;;8.30;6.03;;;;;;;;;;5025007;28;20530;-88
2022/11/27 15:30:50;;;;;;;7.83;5.80;;;;;;;;;;5048638;28;20225;-88
2022/11/27 15:33:55;;;;;;;10.00;6.10;;;;;;;;;;5024442;28;20189;-88
2022/11/27 15:37:05;;;;;;;9.13;6.10;;;;;;;;;;5025193;28;20200;-88
2022/11/27 15:40:32;;;;;;;7.63;5.73;;;;;;;;;;5035807;28;20707;-88
2022/11/27 15:43:36;;;;;;;7.57;5.73;;;;;;;;;;5036687;28;20227;-88
2022/11/27 15:46:41;;;;;;;8.33;5.90;;;;;;;;;;5035966;28;20177;-88
2022/11/27 15:49:45;;;;;;;8.23;6.23;;;;;;;;;;5024293;28;20209;-88
2022/11/27 15:52:49;;;;;;;9.17;6.30;;;;;;;;;;5047339;28;20173;-88
2022/11/27 15:55:53;;;;;;;7.17;5.53;;;;;;;;;;5035601;28;20563;-88
2022/11/27 15:58:57;;;;;;;9.03;6.13;;;;;;;;;;5024637;28;20213;-88
2022/11/27 16:02:02;;;;;;;9.87;6.40;;;;;;;;;;5035581;28;20185;-88
2022/11/27 16:05:07;;;;;;;9.37;5.73;;;;;;;;;;5038709;28;20181;-88
2022/11/27 16:08:11;;;;;;;9.60;6.27;;;;;;;;;;5038124;28;20181;-88
2022/11/27 16:11:18;;;;;;;9.27;7.03;;;;;;;;;;5038162;28;20184;-88
2022/11/27 16:14:22;;;;;;;10.60;6.77;;;;;;;;;;5038816;28;20617;-88
2022/11/27 16:17:27;;;;;;;7.77;5.90;;;;;;;;;;5027091;28;20632;-88
2022/11/27 16:20:30;;;;;;;9.60;6.40;;;;;;;;;;5038356;28;20216;-88
2022/11/27 16:23:36;;;;;;;10.00;7.30;;;;;;;;;;5019471;28;20548;-88
2022/11/27 16:26:41;;;;;;;10.57;7.10;;;;;;;;;;5045058;28;20647;-88
2022/11/27 16:29:46;;;;;;;9.77;7.40;;;;;;;;;;5045421;28;20224;-88
2022/11/27 16:32:50;;;;;;;10.37;7.37;;;;;;;;;;5045292;28;20181;-88
2022/11/27 16:36:02;;;;;;;9.80;7.10;;;;;;;;;;5032535;28;20185;-90
2022/11/27 16:39:06;;;;;;;12.30;6.53;;;;;;;;;;5031817;28;20220;-89
2022/11/27 16:42:10;;;;;;;10.93;7.30;;;;;;;;;;5042332;28;20177;-89
2022/11/27 16:45:14;;;;;;;9.60;6.33;;;;;;;;;;5031278;28;20177;-88
2022/11/27 16:48:19;;;;;;;8.47;5.80;;;;;;;;;;5030583;28;20505;-89
2022/11/27 16:51:27;;;;;;;11.67;7.43;;;;;;;;;;5028964;28;20176;-89
2022/11/27 16:54:31;;;;;;;10.57;6.87;;;;;;;;;;5051144;28;20177;-89
2022/11/27 16:57:36;;;;;;;10.00;6.90;;;;;;;;;;5039869;28;20185;-91
2022/11/27 17:00:41;;;;;;;11.57;6.70;;;;;;;;;;5038940;28;20208;-90
2022/11/27 17:03:46;;;;;;;10.33;6.70;;;;;;;;;;5038914;28;20224;-88
2022/11/27 17:06:51;;;;;;;8.93;6.87;;;;;;;;;;5050341;28;20659;-90
2022/11/27 17:09:55;;;;;;;12.33;7.57;;;;;;;;;;5037919;28;20217;-90
2022/11/27 17:12:59;;;;;;;13.43;8.30;;;;;;;;;;5038173;28;20543;-90
2022/11/27 17:16:05;;;;;;;13.43;8.80;;;;;;;;;;5014867;28;20547;-91
2022/11/27 17:19:14;;;;;;;15.60;7.63;;;;;;;;;;5036393;28;20212;-91
2022/11/27 17:22:20;;;;;;;11.87;7.77;;;;;;;;;;5036118;28;20207;-89
2022/11/27 17:25:25;;;;;;;12.50;7.87;;;;;;;;;;5036327;28;20628;-90
2022/11/27 17:28:30;;;;;;;13.03;8.40;;;;;;;;;;5036692;28;20181;-90
2022/11/27 17:31:35;;;;;;;12.13;7.87;;;;;;;;;;5012682;28;20177;-91
2022/11/27 17:34:40;;;;;;;11.23;7.50;;;;;;;;;;5035451;28;20536;-90
2022/11/27 17:37:44;;;;;;;13.37;8.47;;;;;;;;;;5023965;28;20877;-89
2022/11/27 17:40:49;;;;;;;14.17;9.17;;;;;;;;;;5034837;28;20627;-89
2022/11/27 17:43:53;;;;;;;13.03;8.83;;;;;;;;;;5035174;28;20209;-89
2022/11/27 17:46:57;;;;;;;15.53;8.77;;;;;;;;;;5035124;28;20552;-89
2022/11/27 17:50:01;;;;;;;14.77;9.53;;;;;;;;;;5023378;28;20627;-89
2022/11/27 17:53:06;;;;;;;13.13;9.23;;;;;;;;;;5034971;28;20185;-89
2022/11/27 17:56:13;;;;;;;16.33;9.60;;;;;;;;;;5012033;28;20180;-89
2022/11/27 17:59:18;;;;;;;14.03;9.83;;;;;;;;;;5023493;28;20634;-89
2022/11/27 18:02:22;;;;;;;13.87;9.83;;;;;;;;;;5022809;28;20599;-88
2022/11/27 18:05:27;;;;;;;16.20;10.60;;;;;;;;;;5032952;28;20599;-90
2022/11/27 18:08:32;;;;;;;14.93;9.93;;;;;;;;;;5022901;28;20603;-89
2022/11/27 18:11:36;;;;;;;12.00;9.27;;;;;;;;;;5034102;28;20200;-88
2022/11/27 18:14:45;;;;;;;15.00;9.70;;;;;;;;;;5022938;28;20173;-89
2022/11/27 18:18:29;;;;;;;17.13;10.20;;;;;;;;;;5033130;28;20181;-89
2022/11/27 18:21:59;;;;;;;14.17;9.37;;;;;;;;;;5022724;28;20181;-88
2022/11/27 18:25:39;;;;;;;15.40;10.53;;;;;;;;;;5022495;28;20204;-89
2022/11/27 18:28:48;;;;;;;19.13;11.27;;;;;;;;;;5026494;28;21173;-88
2022/11/27 18:31:52;;;;;;;15.97;11.40;;;;;;;;;;5022604;28;20547;-88
2022/11/27 18:35:07;;;;;;;17.07;11.67;;;;;;;;;;5032976;28;21185;-89
2022/11/27 18:38:15;;;;;;;20.33;12.63;;;;;;;;;;5033655;28;20918;-88
2022/11/27 18:41:27;;;;;;;20.20;12.83;;;;;;;;;;5011102;28;20560;-88